sensor_id;sensor_type;location;lat;lon;timestamp;pressure;altitude;pressure_sealevel;temperature
74915;BMP280;63475;45.140;-75.616;2023-03-20T00:00:13;100449.44;;;-2.08
74915;BMP280;63475;45.140;-75.616;2023-03-20T00:01:22;100449.16;;;-2.16
74915;BMP280;63475;45.140;-75.616;2023-03-20T00:02:24;100457.84;;;-2.20
74915;BMP280;63475;45.140;-75.616;2023-03-20T00:03:25;100424.34;;;-2.42
74915;BMP280;63475;45.140;-75.616;2023-03-20T00:04:27;100426.19;;;-2.43
74915;BMP280;63475;45.140;-75.616;2023-03-20T00:05:29;100460.16;;;-2.27
74915;BMP280;63475;45.140;-75.616;2023-03-20T00:06:30;100457.88;;;-2.29
74915;BMP280;63475;45.140;-75.616;2023-03-20T00:07:31;100459.56;;;-2.33
74915;BMP280;63475;45.140;-75.616;2023-03-20T00:08:32;100461.72;;;-2.35
74915;BMP280;63475;45.140;-75.616;2023-03-20T00:09:33;100463.84;;;-2.37
74915;BMP280;63475;45.140;-75.616;2023-03-20T00:10:40;100456.41;;;-2.47
74915;BMP280;63475;45.140;-75.616;2023-03-20T00:12:01;100469.53;;;-2.44
74915;BMP280;63475;45.140;-75.616;2023-03-20T00:13:03;100467.53;;;-2.47
74915;BMP280;63475;45.140;-75.616;2023-03-20T00:14:08;100470.75;;;-2.50
74915;BMP280;63475;45.140;-75.616;2023-03-20T00:15:31;100466.19;;;-2.53
74915;BMP280;63475;45.140;-75.616;2023-03-20T00:16:36;100465.25;;;-2.57
74915;BMP280;63475;45.140;-75.616;2023-03-20T00:17:37;100471.06;;;-2.60
74915;BMP280;63475;45.140;-75.616;2023-03-20T00:18:38;100423.34;;;-2.93
74915;BMP280;63475;45.140;-75.616;2023-03-20T00:19:41;100473.81;;;-2.65
74915;BMP280;63475;45.140;-75.616;2023-03-20T00:20:43;100440.28;;;-2.87
74915;BMP280;63475;45.140;-75.616;2023-03-20T00:21:44;100449.00;;;-2.83
74915;BMP280;63475;45.140;-75.616;2023-03-20T00:22:47;100481.44;;;-2.77
74915;BMP280;63475;45.140;-75.616;2023-03-20T00:23:48;100474.75;;;-2.78
74915;BMP280;63475;45.140;-75.616;2023-03-20T00:24:49;100476.13;;;-2.81
74915;BMP280;63475;45.140;-75.616;2023-03-20T00:25:50;100467.84;;;-2.91
74915;BMP280;63475;45.140;-75.616;2023-03-20T00:26:52;100479.59;;;-2.85
74915;BMP280;63475;45.140;-75.616;2023-03-20T00:27:53;100473.63;;;-2.94
74915;BMP280;63475;45.140;-75.616;2023-03-20T00:28:55;100468.47;;;-3.03
74915;BMP280;63475;45.140;-75.616;2023-03-20T00:29:57;100480.34;;;-2.93
74915;BMP280;63475;45.140;-75.616;2023-03-20T00:30:58;100481.72;;;-2.96
74915;BMP280;63475;45.140;-75.616;2023-03-20T00:31:59;100477.91;;;-2.98
74915;BMP280;63475;45.140;-75.616;2023-03-20T00:33:00;100481.88;;;-3.01
74915;BMP280;63475;45.140;-75.616;2023-03-20T00:34:09;100482.63;;;-3.00
74915;BMP280;63475;45.140;-75.616;2023-03-20T00:35:27;100483.25;;;-3.03
74915;BMP280;63475;45.140;-75.616;2023-03-20T00:36:29;100483.69;;;-3.10
74915;BMP280;63475;45.140;-75.616;2023-03-20T00:37:30;100462.19;;;-3.28
74915;BMP280;63475;45.140;-75.616;2023-03-20T00:38:30;100490.25;;;-3.13
74915;BMP280;63475;45.140;-75.616;2023-03-20T00:39:31;100480.81;;;-3.17
74915;BMP280;63475;45.140;-75.616;2023-03-20T00:40:33;100468.41;;;-3.29
74915;BMP280;63475;45.140;-75.616;2023-03-20T00:41:48;100489.94;;;-3.20
74915;BMP280;63475;45.140;-75.616;2023-03-20T00:42:57;100487.94;;;-3.23
74915;BMP280;63475;45.140;-75.616;2023-03-20T00:44:01;100479.38;;;-3.32
74915;BMP280;63475;45.140;-75.616;2023-03-20T00:45:04;100494.47;;;-3.25
74915;BMP280;63475;45.140;-75.616;2023-03-20T00:46:11;100505.13;;;-3.27
74915;BMP280;63475;45.140;-75.616;2023-03-20T00:47:17;100496.75;;;-3.32
74915;BMP280;63475;45.140;-75.616;2023-03-20T00:48:19;100505.44;;;-3.28
74915;BMP280;63475;45.140;-75.616;2023-03-20T00:49:40;100512.75;;;-3.30
74915;BMP280;63475;45.140;-75.616;2023-03-20T00:50:41;100497.16;;;-3.39
74915;BMP280;63475;45.140;-75.616;2023-03-20T00:51:42;100509.69;;;-3.32
74915;BMP280;63475;45.140;-75.616;2023-03-20T00:52:44;100496.41;;;-3.48
74915;BMP280;63475;45.140;-75.616;2023-03-20T00:53:45;100506.00;;;-3.40
74915;BMP280;63475;45.140;-75.616;2023-03-20T00:54:46;100507.81;;;-3.41
74915;BMP280;63475;45.140;-75.616;2023-03-20T00:55:47;100506.75;;;-3.40
74915;BMP280;63475;45.140;-75.616;2023-03-20T00:57:05;100464.34;;;-3.70
74915;BMP280;63475;45.140;-75.616;2023-03-20T00:58:08;100466.94;;;-3.70
74915;BMP280;63475;45.140;-75.616;2023-03-20T00:59:16;100501.28;;;-3.47
74915;BMP280;63475;45.140;-75.616;2023-03-20T01:00:30;100503.09;;;-3.47
74915;BMP280;63475;45.140;-75.616;2023-03-20T01:01:32;100494.56;;;-3.56
74915;BMP280;63475;45.140;-75.616;2023-03-20T01:02:33;100518.78;;;-3.52
74915;BMP280;63475;45.140;-75.616;2023-03-20T01:03:34;100515.88;;;-3.51
74915;BMP280;63475;45.140;-75.616;2023-03-20T01:04:38;100512.81;;;-3.53
74915;BMP280;63475;45.140;-75.616;2023-03-20T01:05:39;100498.31;;;-3.62
74915;BMP280;63475;45.140;-75.616;2023-03-20T01:06:40;100515.25;;;-3.56
74915;BMP280;63475;45.140;-75.616;2023-03-20T01:07:42;100521.50;;;-3.57
74915;BMP280;63475;45.140;-75.616;2023-03-20T01:08:44;100522.53;;;-3.58
74915;BMP280;63475;45.140;-75.616;2023-03-20T01:09:45;100516.88;;;-3.60
74915;BMP280;63475;45.140;-75.616;2023-03-20T01:10:52;100519.00;;;-3.62
74915;BMP280;63475;45.140;-75.616;2023-03-20T01:11:53;100483.59;;;-3.84
74915;BMP280;63475;45.140;-75.616;2023-03-20T01:12:57;100508.34;;;-3.70
74915;BMP280;63475;45.140;-75.616;2023-03-20T01:13:59;100524.09;;;-3.57
74915;BMP280;63475;45.140;-75.616;2023-03-20T01:15:01;100520.72;;;-3.58
74915;BMP280;63475;45.140;-75.616;2023-03-20T01:16:02;100523.72;;;-3.64
74915;BMP280;63475;45.140;-75.616;2023-03-20T01:17:03;100521.00;;;-3.59
74915;BMP280;63475;45.140;-75.616;2023-03-20T01:18:04;100505.88;;;-3.75
74915;BMP280;63475;45.140;-75.616;2023-03-20T01:19:05;100521.78;;;-3.59
74915;BMP280;63475;45.140;-75.616;2023-03-20T01:20:14;100513.06;;;-3.63
74915;BMP280;63475;45.140;-75.616;2023-03-20T01:21:16;100536.88;;;-3.52
74915;BMP280;63475;45.140;-75.616;2023-03-20T01:22:18;100527.72;;;-3.58
74915;BMP280;63475;45.140;-75.616;2023-03-20T01:23:19;100532.34;;;-3.47
74915;BMP280;63475;45.140;-75.616;2023-03-20T01:24:22;100519.00;;;-3.62
74915;BMP280;63475;45.140;-75.616;2023-03-20T01:25:23;100537.50;;;-3.47
74915;BMP280;63475;45.140;-75.616;2023-03-20T01:26:34;100505.91;;;-3.66
74915;BMP280;63475;45.140;-75.616;2023-03-20T01:27:36;100538.91;;;-3.41
74915;BMP280;63475;45.140;-75.616;2023-03-20T01:28:37;100534.03;;;-3.42
74915;BMP280;63475;45.140;-75.616;2023-03-20T01:29:38;100526.25;;;-3.42
74915;BMP280;63475;45.140;-75.616;2023-03-20T01:30:39;100534.19;;;-3.39
74915;BMP280;63475;45.140;-75.616;2023-03-20T01:31:40;100529.94;;;-3.34
74915;BMP280;63475;45.140;-75.616;2023-03-20T01:32:41;100509.63;;;-3.50
74915;BMP280;63475;45.140;-75.616;2023-03-20T01:33:43;100533.47;;;-3.30
74915;BMP280;63475;45.140;-75.616;2023-03-20T01:34:45;100531.63;;;-3.30
74915;BMP280;63475;45.140;-75.616;2023-03-20T01:35:48;100524.13;;;-3.40
74915;BMP280;63475;45.140;-75.616;2023-03-20T01:36:51;100540.31;;;-3.26
74915;BMP280;63475;45.140;-75.616;2023-03-20T01:37:53;100539.00;;;-3.23
74915;BMP280;63475;45.140;-75.616;2023-03-20T01:38:57;100527.22;;;-3.29
74915;BMP280;63475;45.140;-75.616;2023-03-20T01:39:58;100537.63;;;-3.21
74915;BMP280;63475;45.140;-75.616;2023-03-20T01:41:07;100536.56;;;-3.20
74915;BMP280;63475;45.140;-75.616;2023-03-20T01:42:09;100538.53;;;-3.17
74915;BMP280;63475;45.140;-75.616;2023-03-20T01:43:14;100538.25;;;-3.15
74915;BMP280;63475;45.140;-75.616;2023-03-20T01:44:42;100517.63;;;-3.29
74915;BMP280;63475;45.140;-75.616;2023-03-20T01:47:23;100542.22;;;-3.09
74915;BMP280;63475;45.140;-75.616;2023-03-20T01:51:23;100546.47;;;-3.05
74915;BMP280;63475;45.140;-75.616;2023-03-20T01:52:25;100528.03;;;-3.12
74915;BMP280;63475;45.140;-75.616;2023-03-20T01:53:27;100545.88;;;-3.01
74915;BMP280;63475;45.140;-75.616;2023-03-20T01:54:33;100538.88;;;-3.01
74915;BMP280;63475;45.140;-75.616;2023-03-20T01:55:36;100554.09;;;-2.99
74915;BMP280;63475;45.140;-75.616;2023-03-20T01:56:42;100557.91;;;-2.97
74915;BMP280;63475;45.140;-75.616;2023-03-20T01:57:44;100554.25;;;-2.96
74915;BMP280;63475;45.140;-75.616;2023-03-20T01:58:57;100551.22;;;-2.98
74915;BMP280;63475;45.140;-75.616;2023-03-20T02:00:05;100554.72;;;-2.94
74915;BMP280;63475;45.140;-75.616;2023-03-20T02:01:09;100547.72;;;-2.93
74915;BMP280;63475;45.140;-75.616;2023-03-20T02:02:16;100551.06;;;-2.93
74915;BMP280;63475;45.140;-75.616;2023-03-20T02:03:19;100551.81;;;-2.92
74915;BMP280;63475;45.140;-75.616;2023-03-20T02:04:26;100555.47;;;-2.93
74915;BMP280;63475;45.140;-75.616;2023-03-20T02:05:30;100549.88;;;-2.87
74915;BMP280;63475;45.140;-75.616;2023-03-20T02:06:31;100556.59;;;-2.86
74915;BMP280;63475;45.140;-75.616;2023-03-20T02:07:34;100559.94;;;-2.85
74915;BMP280;63475;45.140;-75.616;2023-03-20T02:08:44;100555.81;;;-2.86
74915;BMP280;63475;45.140;-75.616;2023-03-20T02:09:47;100565.88;;;-2.85
74915;BMP280;63475;45.140;-75.616;2023-03-20T02:10:49;100557.34;;;-2.85
74915;BMP280;63475;45.140;-75.616;2023-03-20T02:11:51;100539.78;;;-2.97
74915;BMP280;63475;45.140;-75.616;2023-03-20T02:12:54;100556.75;;;-2.82
74915;BMP280;63475;45.140;-75.616;2023-03-20T02:13:57;100554.63;;;-2.80
74915;BMP280;63475;45.140;-75.616;2023-03-20T02:14:59;100559.81;;;-2.80
74915;BMP280;63475;45.140;-75.616;2023-03-20T02:16:12;100522.09;;;-3.03
74915;BMP280;63475;45.140;-75.616;2023-03-20T02:17:14;100551.13;;;-2.76
74915;BMP280;63475;45.140;-75.616;2023-03-20T02:18:15;100558.28;;;-2.72
74915;BMP280;63475;45.140;-75.616;2023-03-20T02:19:23;100558.28;;;-2.72
74915;BMP280;63475;45.140;-75.616;2023-03-20T02:20:36;100562.72;;;-2.73
74915;BMP280;63475;45.140;-75.616;2023-03-20T02:25:13;100558.75;;;-2.62
74915;BMP280;63475;45.140;-75.616;2023-03-20T02:34:55;100551.25;;;-2.55
74915;BMP280;63475;45.140;-75.616;2023-03-20T02:37:58;100558.31;;;-2.47
74915;BMP280;63475;45.140;-75.616;2023-03-20T02:40:40;100559.22;;;-2.42
74915;BMP280;63475;45.140;-75.616;2023-03-20T02:46:51;100564.09;;;-2.50
74915;BMP280;63475;45.140;-75.616;2023-03-20T02:48:19;100545.94;;;-2.58
74915;BMP280;63475;45.140;-75.616;2023-03-20T02:50:02;100557.69;;;-2.44
74915;BMP280;63475;45.140;-75.616;2023-03-20T02:51:16;100542.44;;;-2.54
74915;BMP280;63475;45.140;-75.616;2023-03-20T02:52:19;100558.44;;;-2.43
74915;BMP280;63475;45.140;-75.616;2023-03-20T02:55:05;100559.22;;;-2.42
74915;BMP280;63475;45.140;-75.616;2023-03-20T02:56:27;100555.41;;;-2.45
74915;BMP280;63475;45.140;-75.616;2023-03-20T02:58:02;100563.94;;;-2.45
74915;BMP280;63475;45.140;-75.616;2023-03-20T02:59:16;100556.47;;;-2.46
74915;BMP280;63475;45.140;-75.616;2023-03-20T03:01:05;100554.63;;;-2.37
74915;BMP280;63475;45.140;-75.616;2023-03-20T03:02:25;100554.03;;;-2.42
74915;BMP280;63475;45.140;-75.616;2023-03-20T03:04:03;100542.28;;;-2.49
74915;BMP280;63475;45.140;-75.616;2023-03-20T03:05:11;100534.19;;;-2.56
74915;BMP280;63475;45.140;-75.616;2023-03-20T03:06:32;100563.50;;;-2.47
74915;BMP280;63475;45.140;-75.616;2023-03-20T03:07:36;100559.38;;;-2.48
74915;BMP280;63475;45.140;-75.616;2023-03-20T03:08:42;100554.94;;;-2.47
74915;BMP280;63475;45.140;-75.616;2023-03-20T03:09:58;100554.63;;;-2.46
74915;BMP280;63475;45.140;-75.616;2023-03-20T03:11:06;100555.25;;;-2.49
74915;BMP280;63475;45.140;-75.616;2023-03-20T03:12:15;100547.16;;;-2.47
74915;BMP280;63475;45.140;-75.616;2023-03-20T03:13:20;100561.19;;;-2.48
74915;BMP280;63475;45.140;-75.616;2023-03-20T03:14:33;100558.75;;;-2.45
74915;BMP280;63475;45.140;-75.616;2023-03-20T03:15:38;100554.63;;;-2.46
74915;BMP280;63475;45.140;-75.616;2023-03-20T03:16:40;100557.06;;;-2.40
74915;BMP280;63475;45.140;-75.616;2023-03-20T03:17:44;100535.72;;;-2.55
74915;BMP280;63475;45.140;-75.616;2023-03-20T03:18:51;100537.72;;;-2.52
74915;BMP280;63475;45.140;-75.616;2023-03-20T03:19:57;100550.66;;;-2.43
74915;BMP280;63475;45.140;-75.616;2023-03-20T03:21:01;100539.38;;;-2.56
74915;BMP280;63475;45.140;-75.616;2023-03-20T03:22:04;100531.75;;;-2.61
74915;BMP280;63475;45.140;-75.616;2023-03-20T03:23:06;100563.31;;;-2.41
74915;BMP280;63475;45.140;-75.616;2023-03-20T03:24:37;100558.91;;;-2.41
74915;BMP280;63475;45.140;-75.616;2023-03-20T03:25:39;100545.03;;;-2.45
74915;BMP280;63475;45.140;-75.616;2023-03-20T03:26:41;100548.84;;;-2.42
74915;BMP280;63475;45.140;-75.616;2023-03-20T03:27:44;100552.97;;;-2.41
74915;BMP280;63475;45.140;-75.616;2023-03-20T03:28:51;100545.94;;;-2.41
74915;BMP280;63475;45.140;-75.616;2023-03-20T03:29:56;100545.63;;;-2.39
74915;BMP280;63475;45.140;-75.616;2023-03-20T03:30:58;100528.56;;;-2.49
74915;BMP280;63475;45.140;-75.616;2023-03-20T03:32:00;100525.97;;;-2.49
74915;BMP280;63475;45.140;-75.616;2023-03-20T03:34:14;100545.31;;;-2.38
74915;BMP280;63475;45.140;-75.616;2023-03-20T03:35:19;100549.59;;;-2.33
74915;BMP280;63475;45.140;-75.616;2023-03-20T03:39:40;100548.81;;;-2.34
74915;BMP280;63475;45.140;-75.616;2023-03-20T03:42:32;100543.31;;;-2.32
74915;BMP280;63475;45.140;-75.616;2023-03-20T03:43:44;100522.44;;;-2.45
74915;BMP280;63475;45.140;-75.616;2023-03-20T03:44:59;100542.56;;;-2.33
74915;BMP280;63475;45.140;-75.616;2023-03-20T03:46:27;100541.19;;;-2.30
74915;BMP280;63475;45.140;-75.616;2023-03-20T03:47:53;100539.97;;;-2.33
74915;BMP280;63475;45.140;-75.616;2023-03-20T03:48:57;100509.19;;;-2.52
74915;BMP280;63475;45.140;-75.616;2023-03-20T03:50:09;100522.91;;;-2.42
74915;BMP280;63475;45.140;-75.616;2023-03-20T03:51:22;100536.63;;;-2.33
74915;BMP280;63475;45.140;-75.616;2023-03-20T03:52:25;100528.53;;;-2.32
74915;BMP280;63475;45.140;-75.616;2023-03-20T03:53:31;100533.56;;;-2.35
74915;BMP280;63475;45.140;-75.616;2023-03-20T03:54:44;100532.81;;;-2.36
74915;BMP280;63475;45.140;-75.616;2023-03-20T03:55:49;100540.75;;;-2.32
74915;BMP280;63475;45.140;-75.616;2023-03-20T03:56:53;100506.16;;;-2.54
74915;BMP280;63475;45.140;-75.616;2023-03-20T03:58:22;100534.78;;;-2.33
74915;BMP280;63475;45.140;-75.616;2023-03-20T03:59:46;100516.50;;;-2.45
74915;BMP280;63475;45.140;-75.616;2023-03-20T04:00:49;100536.63;;;-2.33
74915;BMP280;63475;45.140;-75.616;2023-03-20T04:01:53;100501.25;;;-2.47
74915;BMP280;63475;45.140;-75.616;2023-03-20T04:02:56;100525.78;;;-2.35
74915;BMP280;63475;45.140;-75.616;2023-03-20T04:03:59;100522.56;;;-2.32
74915;BMP280;63475;45.140;-75.616;2023-03-20T04:05:01;100523.50;;;-2.28
74915;BMP280;63475;45.140;-75.616;2023-03-20T04:06:03;100519.66;;;-2.22
74915;BMP280;63475;45.140;-75.616;2023-03-20T04:07:06;100500.63;;;-2.35
74915;BMP280;63475;45.140;-75.616;2023-03-20T04:08:07;100520.72;;;-2.23
74915;BMP280;63475;45.140;-75.616;2023-03-20T04:09:08;100517.22;;;-2.27
74915;BMP280;63475;45.140;-75.616;2023-03-20T04:10:10;100490.56;;;-2.36
74915;BMP280;63475;45.140;-75.616;2023-03-20T04:11:16;100519.81;;;-2.19
74915;BMP280;63475;45.140;-75.616;2023-03-20T04:12:35;100513.09;;;-2.20
74915;BMP280;63475;45.140;-75.616;2023-03-20T04:13:37;100508.22;;;-2.21
74915;BMP280;63475;45.140;-75.616;2023-03-20T04:14:37;100497.84;;;-2.30
74915;BMP280;63475;45.140;-75.616;2023-03-20T04:15:38;100505.91;;;-2.23
74915;BMP280;63475;45.140;-75.616;2023-03-20T04:16:39;100506.09;;;-2.19
74915;BMP280;63475;45.140;-75.616;2023-03-20T04:17:42;100485.66;;;-2.38
74915;BMP280;63475;45.140;-75.616;2023-03-20T04:18:43;100504.53;;;-2.20
74915;BMP280;63475;45.140;-75.616;2023-03-20T04:19:45;100506.09;;;-2.19
74915;BMP280;63475;45.140;-75.616;2023-03-20T04:20:46;100511.09;;;-2.23
74915;BMP280;63475;45.140;-75.616;2023-03-20T04:21:47;100512.63;;;-2.22
74915;BMP280;63475;45.140;-75.616;2023-03-20T04:22:48;100512.50;;;-2.25
74915;BMP280;63475;45.140;-75.616;2023-03-20T04:23:49;100511.09;;;-2.23
74915;BMP280;63475;45.140;-75.616;2023-03-20T04:24:50;100504.53;;;-2.20
74915;BMP280;63475;45.140;-75.616;2023-03-20T04:25:52;100487.66;;;-2.35
74915;BMP280;63475;45.140;-75.616;2023-03-20T04:26:53;100502.88;;;-2.16
74915;BMP280;63475;45.140;-75.616;2023-03-20T04:27:54;100505.63;;;-2.13
74915;BMP280;63475;45.140;-75.616;2023-03-20T04:28:55;100513.72;;;-2.14
74915;BMP280;63475;45.140;-75.616;2023-03-20T04:29:56;100495.53;;;-2.14
74915;BMP280;63475;45.140;-75.616;2023-03-20T04:30:59;100470.84;;;-2.29
74915;BMP280;63475;45.140;-75.616;2023-03-20T04:32:00;100508.81;;;-2.07
74915;BMP280;63475;45.140;-75.616;2023-03-20T04:33:01;100500.56;;;-2.09
74915;BMP280;63475;45.140;-75.616;2023-03-20T04:34:02;100508.03;;;-2.07
74915;BMP280;63475;45.140;-75.616;2023-03-20T04:35:03;100505.13;;;-2.06
74915;BMP280;63475;45.140;-75.616;2023-03-20T04:36:05;100480.75;;;-2.22
74915;BMP280;63475;45.140;-75.616;2023-03-20T04:37:06;100506.97;;;-2.06
74915;BMP280;63475;45.140;-75.616;2023-03-20T04:38:07;100509.69;;;-2.03
74915;BMP280;63475;45.140;-75.616;2023-03-20T04:39:08;100419.34;;;-2.56
74915;BMP280;63475;45.140;-75.616;2023-03-20T04:40:10;100502.81;;;-1.99
74915;BMP280;63475;45.140;-75.616;2023-03-20T04:41:11;100501.28;;;-2.00
74915;BMP280;63475;45.140;-75.616;2023-03-20T04:42:13;100511.97;;;-2.01
74915;BMP280;63475;45.140;-75.616;2023-03-20T04:43:14;100506.66;;;-2.05
74915;BMP280;63475;45.140;-75.616;2023-03-20T04:44:15;100497.34;;;-2.06
74915;BMP280;63475;45.140;-75.616;2023-03-20T04:45:16;100496.00;;;-2.12
74915;BMP280;63475;45.140;-75.616;2023-03-20T04:46:17;100483.78;;;-2.20
74915;BMP280;63475;45.140;-75.616;2023-03-20T04:47:18;100499.50;;;-2.08
74915;BMP280;63475;45.140;-75.616;2023-03-20T04:48:19;100493.53;;;-2.08
74915;BMP280;63475;45.140;-75.616;2023-03-20T04:49:20;100496.75;;;-2.12
74915;BMP280;63475;45.140;-75.616;2023-03-20T04:50:22;100498.72;;;-2.08
74915;BMP280;63475;45.140;-75.616;2023-03-20T04:51:23;100496.91;;;-2.08
74915;BMP280;63475;45.140;-75.616;2023-03-20T04:52:24;100496.72;;;-2.03
74915;BMP280;63475;45.140;-75.616;2023-03-20T04:53:25;100488.94;;;-2.03
74915;BMP280;63475;45.140;-75.616;2023-03-20T04:54:26;100491.72;;;-2.08
74915;BMP280;63475;45.140;-75.616;2023-03-20T04:55:26;100501.28;;;-2.00
74915;BMP280;63475;45.140;-75.616;2023-03-20T04:56:27;100497.94;;;-2.00
74915;BMP280;63475;45.140;-75.616;2023-03-20T04:57:28;100500.09;;;-2.02
74915;BMP280;63475;45.140;-75.616;2023-03-20T04:58:31;100494.00;;;-2.06
74915;BMP280;63475;45.140;-75.616;2023-03-20T04:59:33;100506.78;;;-2.01
74915;BMP280;63475;45.140;-75.616;2023-03-20T05:00:33;100496.59;;;-2.06
74915;BMP280;63475;45.140;-75.616;2023-03-20T05:01:35;100471.28;;;-2.18
74915;BMP280;63475;45.140;-75.616;2023-03-20T05:02:36;100500.38;;;-2.04
74915;BMP280;63475;45.140;-75.616;2023-03-20T05:03:37;100504.22;;;-2.10
74915;BMP280;63475;45.140;-75.616;2023-03-20T05:04:38;100455.16;;;-2.32
74915;BMP280;63475;45.140;-75.616;2023-03-20T05:05:39;100479.81;;;-2.09
74915;BMP280;63475;45.140;-75.616;2023-03-20T05:06:40;100494.13;;;-2.03
74915;BMP280;63475;45.140;-75.616;2023-03-20T05:07:45;100494.28;;;-1.99
74915;BMP280;63475;45.140;-75.616;2023-03-20T05:08:46;100497.19;;;-2.01
74915;BMP280;63475;45.140;-75.616;2023-03-20T05:09:47;100478.91;;;-2.13
74915;BMP280;63475;45.140;-75.616;2023-03-20T05:10:48;100476.75;;;-2.11
74915;BMP280;63475;45.140;-75.616;2023-03-20T05:11:49;100503.41;;;-1.93
74915;BMP280;63475;45.140;-75.616;2023-03-20T05:12:50;100501.25;;;-1.91
74915;BMP280;63475;45.140;-75.616;2023-03-20T05:13:51;100502.03;;;-1.91
74915;BMP280;63475;45.140;-75.616;2023-03-20T05:14:52;100490.13;;;-1.92
74915;BMP280;63475;45.140;-75.616;2023-03-20T05:15:56;100444.16;;;-2.29
74915;BMP280;63475;45.140;-75.616;2023-03-20T05:16:57;100463.94;;;-2.07
74915;BMP280;63475;45.140;-75.616;2023-03-20T05:17:58;100496.81;;;-1.91
74915;BMP280;63475;45.140;-75.616;2023-03-20T05:18:59;100471.41;;;-2.06
74915;BMP280;63475;45.140;-75.616;2023-03-20T05:20:00;100496.97;;;-1.87
74915;BMP280;63475;45.140;-75.616;2023-03-20T05:21:00;100499.56;;;-1.87
74915;BMP280;63475;45.140;-75.616;2023-03-20T05:22:02;100502.91;;;-1.87
74915;BMP280;63475;45.140;-75.616;2023-03-20T05:23:03;100485.38;;;-1.90
74915;BMP280;63475;45.140;-75.616;2023-03-20T05:24:04;100486.13;;;-1.89
74915;BMP280;63475;45.140;-75.616;2023-03-20T05:25:05;100494.38;;;-1.87
74915;BMP280;63475;45.140;-75.616;2023-03-20T05:26:06;100492.72;;;-1.92
74915;BMP280;63475;45.140;-75.616;2023-03-20T05:27:10;100487.69;;;-1.97
74915;BMP280;63475;45.140;-75.616;2023-03-20T05:28:11;100470.19;;;-2.08
74915;BMP280;63475;45.140;-75.616;2023-03-20T05:29:12;100484.97;;;-2.00
74915;BMP280;63475;45.140;-75.616;2023-03-20T05:30:13;100488.44;;;-1.96
74915;BMP280;63475;45.140;-75.616;2023-03-20T05:31:14;100492.09;;;-1.89
74915;BMP280;63475;45.140;-75.616;2023-03-20T05:32:15;100487.34;;;-1.87
74915;BMP280;63475;45.140;-75.616;2023-03-20T05:33:17;100486.91;;;-1.89
74915;BMP280;63475;45.140;-75.616;2023-03-20T05:34:17;100466.66;;;-2.04
74915;BMP280;63475;45.140;-75.616;2023-03-20T05:35:18;100485.81;;;-1.88
74915;BMP280;63475;45.140;-75.616;2023-03-20T05:36:19;100498.06;;;-1.79
74915;BMP280;63475;45.140;-75.616;2023-03-20T05:37:21;100497.44;;;-1.76
74915;BMP280;63475;45.140;-75.616;2023-03-20T05:38:22;100507.94;;;-1.73
74915;BMP280;63475;45.140;-75.616;2023-03-20T05:39:23;100504.59;;;-1.73
74915;BMP280;63475;45.140;-75.616;2023-03-20T05:40:23;100516.63;;;-1.69
74915;BMP280;63475;45.140;-75.616;2023-03-20T05:41:25;100502.88;;;-1.69
74915;BMP280;63475;45.140;-75.616;2023-03-20T05:42:29;100482.47;;;-1.79
74915;BMP280;63475;45.140;-75.616;2023-03-20T05:43:30;100497.75;;;-1.78
74915;BMP280;63475;45.140;-75.616;2023-03-20T05:44:31;100503.97;;;-1.70
74915;BMP280;63475;45.140;-75.616;2023-03-20T05:45:32;100479.56;;;-1.87
74915;BMP280;63475;45.140;-75.616;2023-03-20T05:46:33;100502.59;;;-1.68
74915;BMP280;63475;45.140;-75.616;2023-03-20T05:47:34;100505.34;;;-1.73
74915;BMP280;63475;45.140;-75.616;2023-03-20T05:48:35;100509.59;;;-1.68
74915;BMP280;63475;45.140;-75.616;2023-03-20T05:49:36;100503.97;;;-1.70
74915;BMP280;63475;45.140;-75.616;2023-03-20T05:50:37;100513.63;;;-1.79
74915;BMP280;63475;45.140;-75.616;2023-03-20T05:51:38;100510.84;;;-1.74
74915;BMP280;63475;45.140;-75.616;2023-03-20T05:52:39;100512.38;;;-1.73
74915;BMP280;63475;45.140;-75.616;2023-03-20T05:53:40;100456.16;;;-2.07
74915;BMP280;63475;45.140;-75.616;2023-03-20T05:54:41;100509.16;;;-1.70
74915;BMP280;63475;45.140;-75.616;2023-03-20T05:55:42;100506.13;;;-1.72
74915;BMP280;63475;45.140;-75.616;2023-03-20T05:56:44;100503.25;;;-1.79
74915;BMP280;63475;45.140;-75.616;2023-03-20T05:57:46;100512.69;;;-1.84
74915;BMP280;63475;45.140;-75.616;2023-03-20T05:58:47;100512.69;;;-1.75
74915;BMP280;63475;45.140;-75.616;2023-03-20T05:59:48;100506.44;;;-1.74
74915;BMP280;63475;45.140;-75.616;2023-03-20T06:00:49;100513.72;;;-1.67
74915;BMP280;63475;45.140;-75.616;2023-03-20T06:01:50;100524.13;;;-1.67
74915;BMP280;63475;45.140;-75.616;2023-03-20T06:02:51;100508.81;;;-1.60
74915;BMP280;63475;45.140;-75.616;2023-03-20T06:03:52;100521.78;;;-1.60
74915;BMP280;63475;45.140;-75.616;2023-03-20T06:04:53;100517.66;;;-1.61
74915;BMP280;63475;45.140;-75.616;2023-03-20T06:05:54;100506.19;;;-1.60
74915;BMP280;63475;45.140;-75.616;2023-03-20T06:06:55;100499.94;;;-1.59
74915;BMP280;63475;45.140;-75.616;2023-03-20T06:07:56;100506.03;;;-1.55
74915;BMP280;63475;45.140;-75.616;2023-03-20T06:08:56;100506.66;;;-1.58
74915;BMP280;63475;45.140;-75.616;2023-03-20T06:09:57;100517.66;;;-1.61
74915;BMP280;63475;45.140;-75.616;2023-03-20T06:10:58;100503.53;;;-1.72
74915;BMP280;63475;45.140;-75.616;2023-03-20T06:12:00;100512.91;;;-1.59
74915;BMP280;63475;45.140;-75.616;2023-03-20T06:13:01;100512.03;;;-1.63
74915;BMP280;63475;45.140;-75.616;2023-03-20T06:14:02;100522.41;;;-1.63
74915;BMP280;63475;45.140;-75.616;2023-03-20T06:15:03;100514.81;;;-1.68
74915;BMP280;63475;45.140;-75.616;2023-03-20T06:16:05;100483.84;;;-1.91
74915;BMP280;63475;45.140;-75.616;2023-03-20T06:17:06;100537.94;;;-1.55
74915;BMP280;63475;45.140;-75.616;2023-03-20T06:18:07;100532.28;;;-1.48
74915;BMP280;63475;45.140;-75.616;2023-03-20T06:19:08;100511.41;;;-1.60
74915;BMP280;63475;45.140;-75.616;2023-03-20T06:20:10;100521.47;;;-1.50
74915;BMP280;63475;45.140;-75.616;2023-03-20T06:21:11;100493.59;;;-1.70
74915;BMP280;63475;45.140;-75.616;2023-03-20T06:22:12;100520.66;;;-1.51
74915;BMP280;63475;45.140;-75.616;2023-03-20T06:23:13;100513.19;;;-1.52
74915;BMP280;63475;45.140;-75.616;2023-03-20T06:24:14;100515.31;;;-1.45
74915;BMP280;63475;45.140;-75.616;2023-03-20T06:25:16;100499.44;;;-1.53
74915;BMP280;63475;45.140;-75.616;2023-03-20T06:26:17;100508.94;;;-1.57
74915;BMP280;63475;45.140;-75.616;2023-03-20T06:27:20;100509.22;;;-1.49